Cloverdale, Michigan
Current Conditions -  °F | °C
As of 7:53 PM on Tuesday 27 Jan 2015 (Local Time) from KBTL Reporting Station
Clear Clear  
Wind Chill: 17°   Ceiling: Unl
Heat Index: 23°   Visibility: 10mi
Dew Point:   Wind: 5mph
Humidity: 55%   Direction: 30°NNE
Pressure: 30.22"   Gusts: NA
Location:  42.56°N, 85.43°W
Report Text: KBTL 280053Z 03004KT 10SM CLR M05/M13 A3022 RMK AO2 SLP247 T10501128
Loading
Personal Weather Stations






























Interactive Weather Map New forecast layout! Learn more

10-Day Weather Forecast

Advertisements
Track Severe Weather on mobile